createdAt,value
2018-04-10T00:00:38.200Z,9.00
2018-04-10T00:01:40.674Z,22.93
2018-04-10T00:02:43.172Z,10.17
2018-04-10T00:03:45.642Z,9.83
2018-04-10T00:04:48.126Z,14.63
2018-04-10T00:05:50.634Z,12.27
2018-04-10T00:06:53.116Z,6.93
2018-04-10T00:07:55.630Z,14.03
2018-04-10T00:08:58.117Z,11.53
2018-04-10T00:10:00.591Z,12.77
2018-04-10T00:11:03.072Z,10.30
2018-04-10T00:12:05.567Z,9.20
2018-04-10T00:13:08.042Z,11.63
2018-04-10T00:14:10.543Z,15.83
2018-04-10T00:15:13.054Z,7.37
2018-04-10T00:16:15.554Z,21.43
2018-04-10T00:17:18.064Z,10.37
2018-04-10T00:18:20.749Z,12.30
2018-04-10T00:19:23.251Z,14.00
2018-04-10T00:20:25.750Z,11.10
2018-04-10T00:21:28.232Z,11.63
2018-04-10T00:22:30.737Z,6.73
2018-04-10T00:23:33.239Z,15.00
2018-04-10T00:24:35.731Z,13.30
2018-04-10T00:25:38.237Z,10.17
2018-04-10T00:26:40.738Z,11.33
2018-04-10T00:27:43.255Z,9.87
2018-04-10T00:28:45.736Z,8.90
2018-04-10T00:29:48.228Z,14.47
2018-04-10T00:30:50.694Z,10.90
2018-04-10T00:31:53.178Z,12.43
2018-04-10T00:32:55.690Z,19.43
2018-04-10T00:33:58.190Z,7.77
2018-04-10T00:35:00.672Z,9.67
2018-04-10T00:36:03.170Z,12.17
2018-04-10T00:37:05.662Z,8.77
2018-04-10T00:38:08.168Z,11.37
2018-04-10T00:39:10.657Z,12.33
2018-04-10T00:40:13.138Z,6.47
2018-04-10T00:41:15.640Z,8.50
2018-04-10T00:42:18.124Z,9.80
2018-04-10T00:43:20.628Z,6.43
2018-04-10T00:44:23.159Z,11.73
2018-04-10T00:45:25.659Z,12.00
2018-04-10T00:46:28.160Z,11.20
2018-04-10T00:47:30.659Z,5.27
2018-04-10T00:48:33.154Z,27.23
2018-04-10T00:49:35.619Z,7.53
2018-04-10T00:50:38.127Z,13.20
2018-04-10T00:51:40.594Z,9.30
2018-04-10T00:52:43.080Z,6.23
2018-04-10T00:53:45.580Z,12.83
2018-04-10T00:54:48.084Z,13.33
2018-04-10T00:55:50.590Z,9.97
2018-04-10T00:56:53.068Z,8.47
2018-04-10T00:57:55.553Z,8.70
2018-04-10T00:58:58.052Z,10.73
2018-04-10T01:00:00.540Z,13.80
2018-04-10T01:01:03.020Z,8.93
2018-04-10T01:02:05.505Z,12.10
2018-04-10T01:03:08.011Z,7.60
2018-04-10T01:04:10.528Z,8.40
2018-04-10T01:05:13.012Z,13.57
2018-04-10T01:06:15.474Z,8.80
2018-04-10T01:07:17.960Z,10.30
2018-04-10T01:08:20.431Z,11.90
2018-04-10T01:09:22.946Z,6.70
2018-04-10T01:10:25.450Z,10.53
2018-04-10T01:11:27.944Z,22.13
2018-04-10T01:12:30.420Z,12.60
2018-04-10T01:13:32.932Z,5.77
2018-04-10T01:14:35.442Z,11.80
2018-04-10T01:15:37.928Z,9.80
2018-04-10T01:16:40.458Z,12.73
2018-04-10T01:17:42.948Z,11.90
2018-04-10T01:18:45.479Z,14.93
2018-04-10T01:19:47.961Z,13.23
2018-04-10T01:20:50.482Z,14.17
2018-04-10T01:21:52.967Z,8.90
2018-04-10T01:22:55.461Z,11.53
2018-04-10T01:23:57.965Z,16.10
2018-04-10T01:25:00.460Z,10.73
2018-04-10T01:26:02.943Z,9.93
2018-04-10T01:27:05.440Z,10.57
2018-04-10T01:28:07.914Z,11.43
2018-04-10T01:29:10.463Z,13.07
2018-04-10T01:30:12.962Z,17.33
2018-04-10T01:31:15.483Z,12.23
2018-04-10T01:32:17.999Z,12.73
2018-04-10T01:33:20.492Z,12.23
2018-04-10T01:34:22.978Z,12.13
2018-04-10T01:35:25.486Z,10.07
2018-04-10T01:36:27.976Z,12.57
2018-04-10T01:37:30.470Z,9.37
2018-04-10T01:38:32.940Z,7.97
2018-04-10T01:39:35.466Z,9.70
2018-04-10T01:40:37.942Z,10.70
2018-04-10T01:41:40.447Z,12.97
2018-04-10T01:42:42.926Z,10.37
2018-04-10T01:43:45.438Z,11.23
2018-04-10T01:44:47.940Z,8.90
2018-04-10T01:45:50.402Z,9.27
2018-04-10T01:46:52.889Z,12.00
2018-04-10T01:47:55.388Z,9.10
2018-04-10T01:48:58.058Z,13.53
2018-04-10T01:50:00.584Z,16.43
2018-04-10T01:51:03.068Z,6.90
2018-04-10T01:52:05.578Z,6.33
2018-04-10T01:53:08.083Z,9.80
2018-04-10T01:54:10.580Z,12.10
2018-04-10T01:55:13.088Z,11.10
2018-04-10T01:56:15.565Z,8.23
2018-04-10T01:57:18.039Z,11.80
2018-04-10T01:58:20.514Z,14.83
2018-04-10T01:59:23.010Z,8.20
2018-04-10T02:00:25.601Z,9.13
2018-04-10T02:01:28.084Z,6.20
2018-04-10T02:02:30.564Z,7.20
2018-04-10T02:03:33.046Z,5.73
2018-04-10T02:04:35.526Z,9.93
2018-04-10T02:05:38.028Z,9.60
2018-04-10T02:06:40.565Z,7.80
2018-04-10T02:07:43.050Z,12.70
2018-04-10T02:08:45.536Z,11.23
2018-04-10T02:17:12.956Z,7.00
2018-04-10T02:18:32.892Z,17.00
2018-04-10T02:19:52.918Z,5.80
2018-04-10T02:21:13.011Z,9.70
2018-04-10T02:22:15.839Z,6.40
2018-04-10T02:23:18.335Z,8.83
2018-04-10T02:24:20.820Z,9.30
2018-04-10T02:25:23.328Z,8.00
2018-04-10T02:26:25.816Z,13.73
2018-04-10T02:27:28.324Z,15.57
2018-04-10T02:28:30.808Z,6.63
2018-04-10T02:29:33.306Z,6.23
2018-04-10T02:30:35.778Z,8.60
2018-04-10T02:31:38.266Z,7.83
2018-04-10T02:32:40.773Z,11.60
2018-04-10T02:33:43.276Z,11.83
2018-04-10T02:34:45.759Z,7.93
2018-04-10T02:35:48.270Z,6.03
2018-04-10T02:36:50.771Z,9.10
2018-04-10T02:37:53.277Z,8.70
2018-04-10T02:38:55.770Z,7.00
2018-04-10T02:39:58.265Z,9.87
2018-04-10T02:41:00.738Z,10.87
2018-04-10T02:42:03.252Z,12.70
2018-04-10T02:43:05.766Z,8.80
2018-04-10T02:44:08.272Z,11.23
2018-04-10T02:45:10.777Z,17.63
2018-04-10T02:46:13.260Z,8.00
2018-04-10T02:47:15.758Z,9.10
2018-04-10T02:48:18.269Z,12.00
2018-04-10T02:49:20.754Z,6.57
2018-04-10T02:50:23.238Z,6.27
2018-04-10T02:51:25.822Z,6.60
2018-04-10T02:52:28.308Z,7.40
2018-04-10T02:53:30.818Z,9.03
2018-04-10T02:54:33.327Z,10.50
2018-04-10T02:55:36.147Z,8.37
2018-04-10T02:56:38.625Z,6.53
2018-04-10T02:57:41.133Z,4.97
2018-04-10T02:58:43.635Z,6.00
2018-04-10T02:59:46.126Z,13.43
2018-04-10T03:00:48.594Z,6.40
2018-04-10T03:01:51.072Z,5.83
2018-04-10T03:02:53.569Z,10.63
2018-04-10T03:03:56.068Z,10.10
2018-04-10T03:04:58.560Z,5.43
2018-04-10T03:06:01.043Z,8.40
2018-04-10T03:07:03.551Z,8.60
2018-04-10T03:08:06.040Z,6.70
2018-04-10T03:09:08.536Z,6.33
2018-04-10T03:10:11.024Z,8.03
2018-04-10T03:11:13.600Z,10.73
2018-04-10T03:12:16.080Z,6.73
2018-04-10T03:13:18.573Z,10.90
2018-04-10T03:14:21.062Z,5.77
2018-04-10T03:15:23.549Z,10.60
2018-04-10T03:16:26.034Z,9.17
2018-04-10T03:17:28.520Z,6.00
2018-04-10T03:18:31.004Z,10.03
2018-04-10T03:19:33.529Z,9.77
2018-04-10T03:20:36.031Z,16.20
2018-04-10T03:21:38.520Z,5.83
2018-04-10T03:22:40.986Z,7.47
2018-04-10T03:23:43.503Z,11.03
2018-04-10T03:24:45.986Z,6.33
2018-04-10T03:25:48.487Z,4.87
2018-04-10T03:26:50.986Z,11.93
2018-04-10T03:27:53.502Z,9.43
2018-04-10T03:28:56.001Z,8.83
2018-04-10T03:29:58.498Z,15.30
2018-04-10T03:31:00.992Z,11.10
2018-04-10T03:32:03.480Z,9.47
2018-04-10T03:33:05.963Z,7.20
2018-04-10T03:34:08.444Z,9.23
2018-04-10T03:35:10.995Z,4.70
2018-04-10T03:36:13.472Z,3.90
2018-04-10T03:37:15.956Z,7.03
2018-04-10T03:38:18.448Z,9.43
2018-04-10T03:39:20.941Z,11.70
2018-04-10T03:40:23.472Z,10.80
2018-04-10T03:41:25.980Z,7.30
2018-04-10T03:42:28.460Z,8.33
2018-04-10T03:43:30.962Z,7.43
2018-04-10T03:44:33.479Z,10.27
2018-04-10T03:45:35.988Z,5.37
2018-04-10T03:46:38.457Z,10.23
2018-04-10T03:47:40.944Z,6.83
2018-04-10T03:48:43.456Z,13.70
2018-04-10T03:49:45.960Z,5.77
2018-04-10T03:50:48.494Z,5.90
2018-04-10T03:51:50.962Z,13.40
2018-04-10T03:52:53.426Z,6.57
2018-04-10T03:53:55.895Z,11.27
2018-04-10T03:54:58.363Z,9.00
2018-04-10T03:56:00.845Z,9.77
2018-04-10T03:57:03.341Z,7.50
2018-04-10T03:58:05.838Z,5.80
2018-04-10T03:59:08.329Z,9.67
2018-04-10T04:00:10.831Z,8.93
2018-04-10T04:01:13.353Z,8.73
2018-04-10T04:02:15.844Z,7.10
2018-04-10T04:03:18.340Z,5.70
2018-04-10T04:04:20.828Z,8.23
2018-04-10T04:05:23.325Z,11.43
2018-04-10T04:06:25.818Z,9.90
2018-04-10T04:07:28.305Z,13.43
2018-04-10T04:08:30.788Z,13.00
2018-04-10T04:09:32.548Z,9.63
2018-04-10T04:10:35.047Z,10.57
2018-04-10T04:11:37.547Z,5.00
2018-04-10T04:12:40.037Z,8.20
2018-04-10T04:13:42.536Z,7.53
2018-04-10T04:14:45.024Z,6.60
2018-04-10T04:15:47.504Z,6.73
2018-04-10T04:17:01.753Z,7.83
2018-04-10T04:18:04.251Z,5.93
2018-04-10T04:19:18.528Z,7.67
2018-04-10T04:20:26.178Z,7.00
2018-04-10T04:21:40.492Z,6.60
2018-04-10T04:22:42.988Z,11.40
2018-04-10T04:23:45.458Z,9.43
2018-04-10T04:24:47.936Z,6.40
2018-04-10T04:25:50.530Z,6.53
2018-04-10T04:26:53.061Z,4.33
2018-04-10T04:27:55.565Z,4.33
2018-04-10T04:28:58.038Z,6.13
2018-04-10T04:30:00.509Z,4.83
2018-04-10T04:31:02.974Z,6.93
2018-04-10T04:32:05.484Z,9.20
2018-04-10T04:33:07.969Z,4.67
2018-04-10T04:34:10.458Z,5.83
2018-04-10T04:35:12.941Z,6.10
2018-04-10T04:36:15.438Z,6.20
2018-04-10T04:37:17.936Z,7.93
2018-04-10T04:38:20.402Z,5.13
2018-04-10T04:39:22.871Z,4.37
2018-04-10T04:40:25.352Z,7.07
2018-04-10T04:41:27.834Z,6.50
2018-04-10T04:42:30.340Z,5.17
2018-04-10T04:43:32.821Z,7.70
2018-04-10T04:44:35.308Z,6.03
2018-04-10T04:45:37.799Z,4.63
2018-04-10T04:46:40.276Z,8.70
2018-04-10T04:47:42.790Z,5.67
2018-04-10T04:48:45.272Z,5.40
2018-04-10T04:49:47.790Z,11.67
2018-04-10T04:50:50.277Z,7.37
2018-04-10T04:51:52.763Z,3.80
2018-04-10T04:52:55.269Z,4.50
2018-04-10T04:53:57.760Z,7.57
2018-04-10T04:55:00.225Z,8.83
2018-04-10T04:56:02.719Z,7.37
2018-04-10T04:57:05.245Z,7.17
2018-04-10T04:58:07.760Z,5.40
2018-04-10T04:59:10.255Z,8.53
2018-04-10T05:00:12.736Z,4.27
2018-04-10T05:01:15.222Z,7.20
2018-04-10T05:02:17.718Z,7.10
2018-04-10T05:03:20.224Z,6.50
2018-04-10T05:04:22.694Z,6.83
2018-04-10T05:05:25.176Z,11.10
2018-04-10T05:06:27.696Z,8.50
2018-04-10T05:07:30.249Z,9.80
2018-04-10T05:08:32.771Z,4.37
2018-04-10T05:09:35.314Z,15.77
2018-04-10T05:10:37.811Z,11.23
2018-04-10T05:11:40.317Z,10.17
2018-04-10T05:12:42.782Z,6.87
2018-04-10T05:13:45.266Z,12.93
2018-04-10T05:14:47.735Z,18.00
2018-04-10T05:15:50.224Z,18.43
2018-04-10T05:16:52.732Z,10.03
2018-04-10T05:17:55.316Z,18.10
2018-04-10T05:18:57.801Z,22.40
2018-04-10T05:20:00.280Z,9.10
2018-04-10T05:21:02.779Z,9.77
2018-04-10T05:22:05.255Z,13.33
2018-04-10T05:23:07.954Z,7.00
2018-04-10T05:24:10.480Z,9.70
2018-04-10T05:25:12.954Z,6.53
2018-04-10T05:26:15.450Z,9.67
2018-04-10T05:27:17.960Z,13.93
2018-04-10T05:28:20.436Z,10.97
2018-04-10T05:29:22.930Z,11.13
2018-04-10T05:30:25.394Z,9.33
2018-04-10T05:31:27.872Z,6.07
2018-04-10T05:32:30.346Z,16.50
2018-04-10T05:33:32.843Z,15.27
2018-04-10T05:34:35.355Z,17.80
2018-04-10T05:35:37.861Z,32.87
2018-04-10T05:36:40.370Z,21.33
2018-04-10T05:37:42.861Z,19.47
2018-04-10T05:38:45.370Z,13.90
2018-04-10T05:39:47.881Z,13.03
2018-04-10T05:40:50.382Z,14.47
2018-04-10T05:41:52.912Z,13.47
2018-04-10T05:42:55.414Z,19.30
2018-04-10T05:43:57.898Z,26.10
2018-04-10T05:45:00.489Z,20.07
2018-04-10T05:46:02.987Z,18.40
2018-04-10T05:47:05.517Z,18.27
2018-04-10T05:48:07.999Z,18.30
2018-04-10T05:49:10.637Z,17.70
2018-04-10T05:50:13.186Z,21.23
2018-04-10T05:51:15.666Z,23.40
2018-04-10T05:52:18.146Z,21.10
2018-04-10T05:53:20.661Z,22.40
2018-04-10T05:54:23.138Z,22.93
2018-04-10T05:55:25.630Z,21.07
2018-04-10T05:56:28.149Z,20.83
2018-04-10T05:57:30.652Z,17.93
2018-04-10T05:58:33.163Z,19.63
2018-04-10T05:59:35.652Z,17.97
2018-04-10T06:00:38.231Z,18.03
2018-04-10T06:01:40.799Z,21.50
2018-04-10T06:02:43.303Z,19.67
2018-04-10T06:03:45.826Z,17.90
2018-04-10T06:04:48.328Z,17.20
2018-04-10T06:05:50.851Z,15.27
2018-04-10T06:06:53.332Z,23.53
2018-04-10T06:07:55.895Z,20.37
2018-04-10T06:08:58.431Z,18.40
2018-04-10T06:10:00.907Z,21.10
2018-04-10T06:11:03.410Z,19.83
2018-04-10T06:12:05.917Z,19.93
2018-04-10T06:13:08.444Z,21.70
2018-04-10T06:14:10.927Z,17.33
2018-04-10T06:15:13.503Z,21.53
2018-04-10T06:16:16.012Z,15.57
2018-04-10T06:17:18.504Z,19.90
2018-04-10T06:18:20.996Z,20.37
2018-04-10T06:19:23.516Z,24.97
2018-04-10T06:20:25.995Z,20.90
2018-04-10T06:21:28.519Z,21.50
2018-04-10T06:22:31.008Z,19.30
2018-04-10T06:23:33.489Z,20.23
2018-04-10T06:24:35.998Z,19.63
2018-04-10T06:25:38.504Z,20.83
2018-04-10T06:26:41.053Z,17.93
2018-04-10T06:27:43.596Z,19.33
2018-04-10T06:28:46.103Z,17.87
2018-04-10T06:29:48.618Z,19.60
2018-04-10T06:30:51.098Z,17.67
2018-04-10T06:31:53.595Z,20.97
2018-04-10T06:32:56.083Z,21.80
2018-04-10T06:33:58.562Z,20.00
2018-04-10T06:35:01.038Z,19.53
2018-04-10T06:36:03.533Z,20.43
2018-04-10T06:37:06.036Z,26.00
2018-04-10T06:38:08.528Z,20.23
2018-04-10T06:39:11.037Z,21.67
2018-04-10T06:40:13.528Z,22.87
2018-04-10T06:41:16.042Z,26.27
2018-04-10T06:42:18.572Z,15.53
2018-04-10T06:43:21.061Z,24.47
2018-04-10T06:44:23.585Z,21.30
2018-04-10T06:45:26.071Z,20.70
2018-04-10T06:46:28.565Z,17.83
2018-04-10T06:47:31.069Z,16.63
2018-04-10T06:48:33.572Z,16.50
2018-04-10T06:49:36.060Z,18.70
2018-04-10T06:50:38.550Z,15.20
2018-04-10T06:51:41.370Z,21.53
2018-04-10T06:52:43.886Z,17.80
2018-04-10T06:53:46.388Z,14.43
2018-04-10T06:54:48.896Z,17.60
2018-04-10T06:55:51.511Z,22.63
2018-04-10T06:56:53.990Z,16.57
2018-04-10T06:57:56.503Z,14.63
2018-04-10T06:58:58.989Z,15.20
2018-04-10T07:00:01.472Z,15.63
2018-04-10T07:01:03.947Z,16.07
2018-04-10T07:02:06.429Z,13.67
2018-04-10T07:03:09.636Z,15.23
2018-04-10T07:04:12.197Z,18.13
2018-04-10T07:05:14.863Z,14.60
2018-04-10T07:06:17.353Z,14.70
2018-04-10T07:07:19.878Z,15.50
2018-04-10T07:08:22.370Z,15.43
2018-04-10T07:09:24.861Z,10.07
2018-04-10T07:10:27.370Z,19.23
2018-04-10T07:11:29.860Z,16.43
2018-04-10T07:12:32.350Z,12.87
2018-04-10T07:13:34.995Z,19.40
2018-04-10T07:14:37.489Z,12.43
2018-04-10T07:15:39.989Z,8.83
2018-04-10T07:16:42.504Z,13.73
2018-04-10T07:17:44.993Z,14.87
2018-04-10T07:18:47.497Z,13.77
2018-04-10T07:19:49.985Z,12.43
2018-04-10T07:20:52.521Z,12.40
2018-04-10T07:21:55.004Z,15.37
2018-04-10T07:22:57.654Z,9.10
2018-04-10T07:24:00.229Z,10.13
2018-04-10T07:25:02.754Z,12.80
2018-04-10T07:26:05.332Z,11.50
2018-04-10T07:27:08.252Z,11.53
2018-04-10T07:28:10.903Z,15.40
2018-04-10T07:29:13.461Z,18.83
2018-04-10T07:30:15.957Z,12.00
2018-04-10T07:31:18.608Z,12.63
2018-04-10T07:32:21.110Z,11.67
2018-04-10T07:33:23.613Z,13.60
2018-04-10T07:34:26.117Z,10.90
2018-04-10T07:35:28.620Z,13.63
2018-04-10T07:36:31.166Z,9.40
2018-04-10T07:37:33.715Z,10.13
2018-04-10T07:38:36.201Z,9.00
2018-04-10T07:39:38.740Z,8.30
2018-04-10T07:40:41.221Z,10.87
2018-04-10T07:41:43.713Z,10.00
2018-04-10T07:42:46.209Z,9.17
2018-04-10T07:43:48.700Z,9.53
2018-04-10T07:44:51.215Z,9.20
2018-04-10T07:45:53.706Z,9.90
2018-04-10T07:46:56.209Z,12.47
2018-04-10T07:47:58.803Z,7.50
2018-04-10T07:49:01.290Z,9.23
2018-04-10T07:50:03.778Z,9.10
2018-04-10T07:51:06.288Z,10.07
2018-04-10T07:52:08.782Z,9.50
2018-04-10T07:53:11.282Z,7.70
2018-04-10T07:54:13.770Z,9.43
2018-04-10T07:55:16.416Z,11.70
2018-04-10T07:56:18.898Z,8.50
2018-04-10T07:57:21.430Z,9.13
2018-04-10T07:58:23.921Z,8.93
2018-04-10T07:59:26.449Z,8.00
2018-04-10T08:00:28.943Z,8.70
2018-04-10T08:01:31.411Z,7.80
2018-04-10T08:02:33.896Z,8.33
2018-04-10T08:03:36.401Z,7.37
2018-04-10T08:04:38.896Z,7.87
2018-04-10T08:05:41.551Z,9.43
2018-04-10T08:06:44.037Z,6.90
2018-04-10T08:07:46.571Z,9.20
2018-04-10T08:08:49.073Z,10.07
2018-04-10T08:09:51.665Z,9.67
2018-04-10T08:10:54.288Z,21.77
2018-04-10T08:11:56.759Z,5.33
2018-04-10T08:12:59.252Z,7.47
2018-04-10T08:14:01.737Z,5.63
2018-04-10T08:15:04.343Z,5.33
2018-04-10T08:16:06.853Z,5.17
2018-04-10T08:17:09.323Z,8.83
2018-04-10T08:18:11.824Z,7.43
2018-04-10T08:19:14.341Z,8.30
2018-04-10T08:20:16.818Z,6.30
2018-04-10T08:21:19.312Z,5.67
2018-04-10T08:22:21.811Z,5.77
2018-04-10T08:23:24.291Z,6.10
2018-04-10T08:24:26.758Z,6.90
2018-04-10T08:25:29.226Z,5.53
2018-04-10T08:26:31.714Z,5.10
2018-04-10T08:27:34.197Z,6.00
2018-04-10T08:28:36.688Z,7.33
2018-04-10T08:29:39.178Z,6.20
2018-04-10T08:30:41.646Z,5.33
2018-04-10T08:31:44.159Z,6.03
2018-04-10T08:32:46.670Z,5.40
2018-04-10T08:33:49.189Z,6.10
2018-04-10T08:34:51.749Z,5.53
2018-04-10T08:35:54.314Z,8.57
2018-04-10T08:36:56.817Z,7.93
2018-04-10T08:37:59.328Z,4.63
2018-04-10T08:39:01.889Z,9.00
2018-04-10T08:40:04.375Z,5.47
2018-04-10T08:41:06.884Z,10.87
2018-04-10T08:42:09.464Z,7.20
2018-04-10T08:43:11.939Z,5.30
2018-04-10T08:44:14.411Z,5.23
2018-04-10T08:45:16.880Z,6.97
2018-04-10T08:46:19.373Z,5.30
2018-04-10T08:47:22.044Z,5.50
2018-04-10T08:48:24.532Z,7.47
2018-04-10T08:49:27.057Z,5.10
2018-04-10T08:50:29.596Z,5.67
2018-04-10T08:51:32.060Z,12.53
2018-04-10T08:52:34.569Z,5.50
2018-04-10T08:53:37.071Z,6.00
2018-04-10T08:54:39.583Z,5.63
2018-04-10T08:55:42.059Z,7.63
2018-04-10T08:56:44.550Z,6.30
2018-04-10T08:57:47.075Z,4.97
2018-04-10T08:58:49.561Z,7.50
2018-04-10T08:59:52.048Z,6.00
2018-04-10T09:00:54.537Z,4.43
2018-04-10T09:01:57.007Z,8.23
2018-04-10T09:02:59.542Z,7.13
2018-04-10T09:04:02.102Z,4.73
2018-04-10T09:05:04.895Z,6.87
2018-04-10T09:06:07.377Z,5.20
2018-04-10T09:07:09.882Z,4.53
2018-04-10T09:08:12.395Z,8.93
2018-04-10T09:09:14.907Z,9.23
2018-04-10T09:10:17.379Z,5.10
2018-04-10T09:11:19.851Z,7.43
2018-04-10T09:12:22.355Z,5.83
2018-04-10T09:13:24.864Z,16.23
2018-04-10T09:14:27.349Z,9.33
2018-04-10T09:15:29.852Z,6.83
2018-04-10T09:16:32.327Z,4.73
2018-04-10T09:17:34.873Z,8.90
2018-04-10T09:18:37.396Z,5.30
2018-04-10T09:19:39.888Z,7.40
2018-04-10T09:20:42.362Z,11.93
2018-04-10T09:21:44.842Z,10.40
2018-04-10T09:22:47.327Z,7.03
2018-04-10T09:23:49.859Z,6.20
2018-04-10T09:24:52.349Z,10.67
2018-04-10T09:25:54.842Z,5.50
2018-04-10T09:26:57.310Z,4.83
2018-04-10T09:27:59.802Z,5.70
2018-04-10T09:29:02.314Z,5.50
2018-04-10T09:30:04.797Z,4.80
2018-04-10T09:31:07.290Z,6.87
2018-04-10T09:32:09.805Z,8.90
2018-04-10T09:33:12.308Z,6.27
2018-04-10T09:34:14.838Z,4.87
2018-04-10T09:35:17.323Z,6.70
2018-04-10T09:36:19.833Z,5.20
2018-04-10T09:37:22.320Z,5.63
2018-04-10T09:38:24.843Z,6.07
2018-04-10T09:39:27.345Z,5.10
2018-04-10T09:40:29.830Z,6.00
2018-04-10T09:41:32.302Z,6.50
2018-04-10T09:42:34.800Z,4.50
2018-04-10T09:43:37.317Z,8.50
2018-04-10T09:44:39.818Z,4.90
2018-04-10T09:45:42.312Z,7.10
2018-04-10T09:46:44.793Z,5.57
2018-04-10T09:47:47.273Z,7.47
2018-04-10T09:48:49.771Z,5.00
2018-04-10T09:49:52.291Z,7.53
2018-04-10T09:50:54.812Z,5.60
2018-04-10T09:51:57.280Z,6.13
2018-04-10T09:52:59.754Z,7.70
2018-04-10T09:54:02.249Z,6.77
2018-04-10T09:55:04.760Z,5.87
2018-04-10T09:56:07.249Z,5.63
2018-04-10T09:57:09.801Z,8.40
2018-04-10T09:58:12.304Z,5.27
2018-04-10T09:59:14.784Z,5.50
2018-04-10T10:01:51.374Z,5.73
2018-04-10T10:02:53.865Z,6.63
2018-04-10T10:03:56.345Z,5.60
2018-04-10T10:04:58.924Z,5.67
2018-04-10T10:06:01.405Z,7.93
2018-04-10T10:07:03.896Z,5.50
2018-04-10T10:08:06.371Z,8.67
2018-04-10T10:09:08.851Z,6.90
2018-04-10T10:10:11.449Z,5.07
2018-04-10T10:11:13.980Z,5.27
2018-04-10T10:12:16.469Z,5.57
2018-04-10T10:13:18.967Z,5.23
2018-04-10T10:14:21.468Z,5.53
2018-04-10T10:15:23.993Z,5.67
2018-04-10T10:16:26.483Z,5.30
2018-04-10T10:17:28.966Z,6.67
2018-04-10T10:18:31.453Z,5.27
2018-04-10T10:19:33.937Z,5.97
2018-04-10T10:20:36.534Z,9.23
2018-04-10T10:21:39.035Z,7.10
2018-04-10T10:22:41.524Z,5.40
2018-04-10T10:23:44.025Z,4.53
2018-04-10T10:24:46.491Z,5.10
2018-04-10T10:25:48.990Z,5.70
2018-04-10T10:26:51.470Z,5.00
2018-04-10T10:27:53.960Z,4.47
2018-04-10T10:28:56.454Z,6.53
2018-04-10T10:29:58.959Z,6.60
2018-04-10T10:31:01.465Z,11.63
2018-04-10T10:32:03.953Z,12.70
2018-04-10T10:33:06.418Z,5.43
2018-04-10T10:34:08.887Z,14.27
2018-04-10T10:35:11.358Z,11.37
2018-04-10T10:36:13.875Z,5.40
2018-04-10T10:37:16.342Z,11.80
2018-04-10T10:38:18.880Z,14.93
2018-04-10T10:39:21.364Z,6.13
2018-04-10T10:40:23.880Z,10.63
2018-04-10T10:41:26.400Z,9.10
2018-04-10T10:42:28.907Z,5.27
2018-04-10T10:43:31.389Z,9.93
2018-04-10T10:44:33.878Z,8.33
2018-04-10T10:45:36.353Z,8.80
2018-04-10T10:46:38.850Z,5.60
2018-04-10T10:47:41.336Z,23.67
2018-04-10T10:48:43.819Z,4.63
2018-04-10T10:49:46.301Z,8.63
2018-04-10T10:50:48.799Z,6.33
2018-04-10T10:51:51.320Z,5.73
2018-04-10T10:52:53.824Z,7.07
2018-04-10T10:53:56.309Z,8.60
2018-04-10T10:54:58.863Z,6.30
2018-04-10T10:56:01.334Z,5.03
2018-04-10T10:57:03.836Z,8.43
2018-04-10T10:58:06.330Z,7.23
2018-04-10T10:59:08.850Z,5.10
2018-04-10T11:00:11.360Z,5.13
2018-04-10T11:01:13.830Z,8.00
2018-04-10T11:02:16.460Z,5.93
2018-04-10T11:03:18.927Z,7.23
2018-04-10T11:04:21.407Z,6.10
2018-04-10T11:05:23.954Z,10.50
2018-04-10T11:06:26.439Z,7.30
2018-04-10T11:07:28.963Z,5.60
2018-04-10T11:08:31.454Z,7.67
2018-04-10T11:09:33.941Z,6.00
2018-04-10T11:10:36.411Z,6.40
2018-04-10T11:11:38.886Z,7.60
2018-04-10T11:12:41.374Z,6.47
2018-04-10T11:13:43.896Z,5.53
2018-04-10T11:14:46.388Z,5.83
2018-04-10T11:15:48.863Z,5.83
2018-04-10T11:16:51.396Z,5.00
2018-04-10T11:17:53.905Z,13.23
2018-04-10T11:18:56.392Z,6.47
2018-04-10T11:19:58.889Z,5.30
2018-04-10T11:21:01.358Z,5.30
2018-04-10T11:22:03.867Z,10.83
2018-04-10T11:23:06.356Z,5.90
2018-04-10T11:24:08.929Z,6.63
2018-04-10T11:25:11.469Z,4.60
2018-04-10T11:26:13.962Z,7.77
2018-04-10T11:27:16.442Z,5.37
2018-04-10T11:28:18.941Z,4.87
2018-04-10T11:29:21.429Z,14.60
2018-04-10T11:30:23.935Z,7.90
2018-04-10T11:31:26.530Z,7.10
2018-04-10T11:32:29.002Z,9.03
2018-04-10T11:33:31.514Z,6.80
2018-04-10T11:34:34.001Z,8.30
2018-04-10T11:35:36.491Z,4.07
2018-04-10T11:36:39.016Z,4.17
2018-04-10T11:37:41.504Z,11.33
2018-04-10T11:38:44.034Z,7.63
2018-04-10T11:39:46.527Z,7.10
2018-04-10T11:40:49.006Z,6.47
2018-04-10T11:41:51.493Z,6.23
2018-04-10T11:42:54.017Z,5.50
2018-04-10T11:43:56.525Z,6.33
2018-04-10T11:44:59.022Z,10.20
2018-04-10T11:46:01.505Z,5.47
2018-04-10T11:47:03.988Z,5.63
2018-04-10T11:48:06.566Z,7.07
2018-04-10T11:49:09.112Z,4.47
2018-04-10T11:50:11.586Z,3.90
2018-04-10T11:51:14.083Z,5.00
2018-04-10T11:52:16.599Z,10.67
2018-04-10T11:53:19.165Z,8.30
2018-04-10T11:54:21.663Z,4.03
2018-04-10T11:55:24.163Z,3.50
2018-04-10T11:56:26.631Z,3.80
2018-04-10T11:57:29.114Z,4.03
2018-04-10T11:58:31.582Z,5.13
2018-04-10T11:59:34.070Z,8.00
2018-04-10T12:00:36.565Z,4.83
2018-04-10T12:01:39.127Z,6.83
2018-04-10T12:02:41.627Z,6.57
2018-04-10T12:03:44.130Z,28.40
2018-04-10T12:04:46.636Z,5.87
2018-04-10T12:05:49.222Z,4.97
2018-04-10T12:06:51.704Z,5.73
2018-04-10T12:07:54.175Z,5.37
2018-04-10T12:08:56.669Z,4.93
2018-04-10T12:09:59.201Z,7.27
2018-04-10T12:11:01.733Z,10.87
2018-04-10T12:12:04.247Z,9.77
2018-04-10T12:13:06.733Z,12.70
2018-04-10T12:14:09.222Z,8.93
2018-04-10T12:15:11.707Z,8.47
2018-04-10T12:16:14.194Z,7.50
2018-04-10T12:17:16.703Z,12.33
2018-04-10T12:18:19.213Z,19.43
2018-04-10T12:19:21.727Z,6.43
2018-04-10T12:20:24.248Z,9.40
2018-04-10T12:21:26.752Z,8.83
2018-04-10T12:22:29.251Z,12.67
2018-04-10T12:23:31.733Z,4.90
2018-04-10T12:24:34.212Z,7.70
2018-04-10T12:25:36.758Z,4.97
2018-04-10T12:26:39.283Z,4.90
2018-04-10T12:27:41.802Z,5.73
2018-04-10T12:28:44.303Z,5.00
2018-04-10T12:29:46.833Z,8.67
2018-04-10T12:30:49.336Z,3.17
2018-04-10T12:31:51.810Z,10.03
2018-04-10T12:32:54.289Z,5.30
2018-04-10T12:33:56.757Z,8.57
2018-04-10T12:34:59.240Z,5.53
2018-04-10T12:36:01.744Z,7.00
2018-04-10T12:37:04.225Z,4.90
2018-04-10T12:38:06.691Z,7.70
2018-04-10T12:39:09.185Z,3.60
2018-04-10T12:40:11.679Z,3.73
2018-04-10T12:41:14.178Z,5.27
2018-04-10T12:42:16.685Z,3.80
2018-04-10T12:43:19.176Z,4.07
2018-04-10T12:44:21.660Z,4.47
2018-04-10T12:45:24.159Z,6.70
2018-04-10T12:46:26.666Z,6.40
2018-04-10T12:47:29.162Z,3.77
2018-04-10T12:48:31.669Z,3.83
2018-04-10T12:49:34.175Z,4.53
2018-04-10T12:50:36.668Z,4.23
2018-04-10T12:51:39.177Z,3.63
2018-04-10T12:52:41.678Z,8.30
2018-04-10T12:53:44.267Z,3.07
2018-04-10T12:54:46.738Z,3.70
2018-04-10T12:55:49.205Z,7.40
2018-04-10T12:56:51.704Z,6.57
2018-04-10T12:57:54.202Z,4.37
2018-04-10T12:58:56.671Z,3.90
2018-04-10T12:59:59.211Z,3.07
2018-04-10T13:01:01.706Z,3.53
2018-04-10T13:02:04.255Z,3.70
2018-04-10T13:03:06.891Z,7.47
2018-04-10T13:04:09.384Z,5.57
2018-04-10T13:05:11.878Z,9.27
2018-04-10T13:06:14.362Z,4.67
2018-04-10T13:07:16.879Z,7.83
2018-04-10T13:08:19.364Z,4.10
2018-04-10T13:09:21.846Z,5.00
2018-04-10T13:10:24.389Z,3.07
2018-04-10T13:11:26.922Z,5.63
2018-04-10T13:12:29.442Z,6.73
2018-04-10T13:13:31.910Z,7.70
2018-04-10T13:14:34.444Z,4.67
2018-04-10T13:15:36.929Z,4.23
2018-04-10T13:16:39.394Z,5.67
2018-04-10T13:17:41.897Z,4.73
2018-04-10T13:18:44.362Z,4.97
2018-04-10T13:19:46.935Z,4.50
2018-04-10T13:20:49.435Z,7.13
2018-04-10T13:21:51.929Z,3.37
2018-04-10T13:22:54.487Z,3.47
2018-04-10T13:23:56.988Z,3.83
2018-04-10T13:24:59.477Z,4.40
2018-04-10T13:26:01.960Z,5.53
2018-04-10T13:27:04.554Z,3.10
2018-04-10T13:28:07.064Z,2.93
2018-04-10T13:29:09.545Z,3.47
2018-04-10T13:30:12.029Z,8.67
2018-04-10T13:31:14.526Z,5.13
2018-04-10T13:32:17.012Z,5.43
2018-04-10T13:33:19.513Z,3.53
2018-04-10T13:34:22.011Z,7.13
2018-04-10T13:35:24.496Z,3.27
2018-04-10T13:36:26.962Z,3.33
2018-04-10T13:37:29.536Z,8.07
2018-04-10T13:38:32.040Z,3.83
2018-04-10T13:39:34.506Z,4.73
2018-04-10T13:40:36.976Z,5.97
2018-04-10T13:41:39.483Z,2.90
2018-04-10T13:42:42.012Z,5.90
2018-04-10T13:43:44.613Z,3.93
2018-04-10T13:44:47.086Z,4.50
2018-04-10T13:45:49.587Z,3.37
2018-04-10T13:46:52.063Z,2.97
2018-04-10T13:47:54.555Z,3.70
2018-04-10T13:48:57.066Z,5.20
2018-04-10T13:49:59.559Z,5.37
2018-04-10T13:51:02.049Z,3.30
2018-04-10T13:52:04.519Z,3.40
2018-04-10T13:53:07.015Z,2.93